Time;durP1;ratioP1;P1;durP2;ratioP2;P2;SDS_P1;SDS_P2;PMS_P1;PMS_P2;Temp;Humidity;BMP_temperature;BMP_pressure;BME280_temperature;BME280_humidity;BME280_pressure;Samples;Min_cycle;Max_cycle;Signal;HPM_P1;HPM_P2
2024/01/23 00:00:08;;;;;;;50.00;31.58;;;7.70;76.70;;;;;;21008609;28;20033;-60
2024/01/23 00:10:09;;;;;;;52.90;31.15;;;7.50;76.80;;;;;;21006634;28;20040;-59
2024/01/23 00:20:11;;;;;;;52.45;31.35;;;7.40;77.20;;;;;;21007149;28;20020;-59
2024/01/23 00:30:13;;;;;;;50.28;31.40;;;7.40;77.10;;;;;;21004825;28;20397;-58
2024/01/23 00:40:15;;;;;;;49.97;31.88;;;7.30;77.40;;;;;;21003693;28;20134;-59
2024/01/23 00:50:17;;;;;;;47.83;29.67;;;7.30;77.20;;;;;;21003361;28;20055;-59
2024/01/23 01:00:19;;;;;;;51.90;30.80;;;7.30;77.50;;;;;;21004249;28;20033;-59
2024/01/23 01:10:20;;;;;;;51.70;32.13;;;7.30;77.10;;;;;;21001859;28;20028;-59
2024/01/23 01:20:21;;;;;;;47.22;30.45;;;7.20;77.30;;;;;;21002550;28;20509;-58
2024/01/23 01:30:26;;;;;;;46.45;30.30;;;7.20;77.50;;;;;;21001699;28;20053;-59
2024/01/23 01:40:28;;;;;;;;;;;7.10;77.50;;;;;;21001024;28;20040;-58
2024/01/23 01:50:29;;;;;;;47.10;27.63;;;7.10;77.20;;;;;;20997416;28;19935;-58
2024/01/23 02:00:32;;;;;;;51.15;29.13;;;7.00;77.40;;;;;;20999111;28;20137;-59
2024/01/23 02:10:33;;;;;;;47.70;29.08;;;6.80;77.40;;;;;;20998125;28;20037;-58
2024/01/23 02:20:34;;;;;;;52.53;30.73;;;6.80;77.50;;;;;;20996182;28;20100;-59
2024/01/23 02:30:35;;;;;;;45.65;28.65;;;6.80;77.60;;;;;;20995678;28;20478;-59
2024/01/23 02:40:38;;;;;;;46.60;27.40;;;6.70;77.70;;;;;;20995393;28;20075;-59
2024/01/23 02:50:39;;;;;;;42.55;26.35;;;6.80;77.40;;;;;;20994855;28;20076;-58
2024/01/23 03:00:42;;;;;;;41.05;26.35;;;6.60;77.00;;;;;;20995668;28;20156;-59
2024/01/23 03:10:43;;;;;;;41.20;27.00;;;6.50;76.60;;;;;;20993769;28;20147;-58
2024/01/23 03:20:44;;;;;;;43.20;27.80;;;6.40;77.10;;;;;;20994948;28;20033;-59
2024/01/23 03:30:45;;;;;;;46.47;29.05;;;6.30;77.40;;;;;;20992985;28;20087;-59
2024/01/23 03:40:47;;;;;;;45.92;27.65;;;6.30;77.40;;;;;;20992880;28;20036;-58
2024/01/23 03:50:48;;;;;;;45.00;27.95;;;6.30;77.40;;;;;;20992623;28;20182;-59
2024/01/23 04:00:49;;;;;;;43.53;27.85;;;6.40;77.60;;;;;;20991863;28;20033;-59
2024/01/23 04:10:50;;;;;;;42.40;27.45;;;6.50;77.60;;;;;;20992785;28;20116;-58
2024/01/23 04:20:51;;;;;;;40.30;26.63;;;6.40;77.10;;;;;;21005432;28;20040;-58
2024/01/23 04:30:52;;;;;;;40.05;24.63;;;6.30;76.50;;;;;;21006107;28;20033;-59
2024/01/23 04:40:54;;;;;;;41.80;25.35;;;6.20;76.30;;;;;;21004098;28;20100;-58
2024/01/23 04:50:55;;;;;;;45.90;27.45;;;6.00;76.60;;;;;;21003669;28;20099;-58
2024/01/23 05:00:58;;;;;;;46.25;27.45;;;6.00;76.50;;;;;;21002397;28;20040;-59
2024/01/23 05:10:59;;;;;;;49.53;28.58;;;5.80;77.10;;;;;;21001528;28;20537;-58
2024/01/23 05:21:00;;;;;;;50.33;29.73;;;5.90;77.60;;;;;;21002119;28;20548;-59
2024/01/23 05:31:01;;;;;;;49.28;28.27;;;6.00;77.60;;;;;;21000860;28;20418;-58
2024/01/23 05:41:03;;;;;;;46.92;27.08;;;5.90;77.40;;;;;;20999046;28;20029;-58
2024/01/23 05:51:04;;;;;;;44.42;26.63;;;5.90;77.40;;;;;;20997762;28;20052;-58
2024/01/23 06:01:11;;;;;;;40.90;26.15;;;5.80;77.30;;;;;;20997221;28;20032;-57
2024/01/23 06:11:13;;;;;;;46.70;26.58;;;5.70;77.20;;;;;;20996477;28;20031;-59
2024/01/23 06:21:14;;;;;;;45.10;28.73;;;5.70;77.40;;;;;;20997104;28;20538;-58
2024/01/23 06:31:15;;;;;;;47.78;28.83;;;5.70;77.70;;;;;;20996260;28;20049;-59
2024/01/23 06:41:17;;;;;;;48.70;29.33;;;5.90;77.50;;;;;;20994801;28;20094;-58
2024/01/23 06:51:18;;;;;;;45.88;29.13;;;6.00;77.50;;;;;;20995769;28;20087;-59
2024/01/23 07:01:20;;;;;;;45.50;28.55;;;6.00;77.50;;;;;;20995747;28;20051;-59
2024/01/23 07:11:21;;;;;;;46.83;26.70;;;6.00;77.40;;;;;;20993708;28;20111;-59
2024/01/23 07:21:22;;;;;;;44.15;27.83;;;5.90;77.50;;;;;;20992969;28;20040;-58
2024/01/23 07:31:23;;;;;;;44.58;26.85;;;5.90;77.10;;;;;;20992492;28;20489;-58
2024/01/23 07:41:24;;;;;;;43.65;28.83;;;5.80;76.50;;;;;;20993323;28;20024;-59
2024/01/23 07:51:27;;;;;;;50.72;31.48;;;5.70;77.10;;;;;;21003174;28;20059;-59
2024/01/23 08:01:32;;;;;;;47.85;29.35;;;5.70;77.70;;;;;;21008153;28;20086;-60
2024/01/23 08:11:33;;;;;;;50.22;30.45;;;5.70;77.70;;;;;;21006886;28;20037;-59
2024/01/23 08:21:34;;;;;;;53.85;32.45;;;5.80;77.90;;;;;;21006405;28;20059;-59
2024/01/23 08:31:35;;;;;;;57.05;33.95;;;5.90;78.00;;;;;;21006444;28;20033;-58
2024/01/23 08:41:36;;;;;;;51.88;32.75;;;6.20;78.00;;;;;;21005326;28;20047;-59
2024/01/23 08:51:37;;;;;;;55.95;31.92;;;6.40;77.80;;;;;;21005011;28;20477;-58
2024/01/23 09:01:41;;;;;;;47.85;30.30;;;6.60;77.50;;;;;;21001896;28;20040;-58
2024/01/23 09:11:42;;;;;;;49.63;31.67;;;6.70;77.10;;;;;;21002496;28;20473;-60
2024/01/23 09:21:43;;;;;;;52.05;31.63;;;7.00;76.70;;;;;;21000853;28;20108;-59
2024/01/23 09:31:46;;;;;;;46.42;31.35;;;7.20;76.20;;;;;;21000975;28;20124;-59
2024/01/23 09:41:51;;;;;;;54.55;33.30;;;7.60;75.70;;;;;;21000288;28;20047;-57
2024/01/23 09:51:54;;;;;;;;;;;7.80;75.00;;;;;;20998910;28;20045;-57
2024/01/23 10:01:59;;;;;;;54.00;33.05;;;8.10;74.60;;;;;;20998361;28;20258;-58
2024/01/23 10:12:00;;;;;;;57.83;38.25;;;8.30;74.30;;;;;;20995805;28;20056;-58
2024/01/23 10:22:03;;;;;;;50.03;35.05;;;8.70;73.90;;;;;;20995638;28;20044;-59
2024/01/23 10:32:08;;;;;;;51.03;33.65;;;9.10;73.30;;;;;;20995738;28;20056;-55
2024/01/23 10:42:12;;;;;;;57.88;34.65;;;9.70;72.50;;;;;;20967181;28;20029;-56
2024/01/23 10:52:18;;;;;;;61.28;34.65;;;10.10;71.90;;;;;;20909420;28;20045;-55
2024/01/23 11:02:42;;;;;;;48.25;32.92;;;10.60;71.00;;;;;;20912154;28;20044;-55
2024/01/23 11:12:56;;;;;;;48.50;33.47;;;11.20;71.30;;;;;;20910446;28;20033;-55
2024/01/23 11:23:13;;;;;;;54.60;34.20;;;11.20;69.30;;;;;;20916762;28;20039;-54
2024/01/23 11:33:24;;;;;;;49.90;32.78;;;11.40;69.30;;;;;;20926139;28;20037;-53
2024/01/23 11:43:25;;;;;;;44.42;30.52;;;11.50;69.50;;;;;;20924220;28;20029;-54
2024/01/23 11:53:29;;;;;;;38.22;28.05;;;12.30;69.10;;;;;;20925073;28;20071;-53
2024/01/23 12:03:31;;;;;;;41.38;31.08;;;13.10;67.00;;;;;;20925968;28;20037;-54
2024/01/23 12:13:32;;;;;;;64.07;44.88;;;13.40;65.90;;;;;;20922714;28;20113;-54
2024/01/23 12:23:33;;;;;;;39.00;28.58;;;13.50;65.30;;;;;;20922326;28;20060;-58
2024/01/23 12:33:38;;;;;;;42.67;28.15;;;13.10;66.70;;;;;;20919356;28;20108;-54
2024/01/23 12:43:40;;;;;;;36.80;25.83;;;13.00;67.60;;;;;;20911383;28;20082;-54
2024/01/23 12:53:41;;;;;;;34.17;25.33;;;13.10;67.70;;;;;;20915867;28;20501;-54
2024/01/23 13:03:42;;;;;;;34.08;21.55;;;13.20;67.80;;;;;;20919451;28;20056;-53
2024/01/23 13:13:43;;;;;;;23.35;18.15;;;13.30;67.60;;;;;;20919376;28;20032;-54
2024/01/23 13:23:45;;;;;;;31.95;23.35;;;13.50;68.00;;;;;;20918976;28;20535;-56
2024/01/23 13:33:46;;;;;;;31.40;22.88;;;13.60;68.00;;;;;;20917632;28;20048;-54
2024/01/23 13:43:47;;;;;;;23.30;15.18;;;13.70;68.00;;;;;;20916094;28;20025;-54
2024/01/23 13:53:48;;;;;;;20.60;14.63;;;13.70;68.70;;;;;;20915318;28;20061;-53
2024/01/23 14:03:49;;;;;;;21.45;16.73;;;13.80;68.40;;;;;;20915870;28;20076;-53
2024/01/23 14:13:50;;;;;;;23.67;16.15;;;13.80;68.60;;;;;;20915275;28;20079;-52
2024/01/23 14:23:51;;;;;;;23.17;16.35;;;13.90;68.50;;;;;;20912729;28;20029;-54
2024/01/23 14:33:52;;;;;;;19.90;15.15;;;14.00;68.50;;;;;;20912196;28;20079;-53
2024/01/23 14:43:53;;;;;;;24.55;17.02;;;14.00;68.60;;;;;;20912829;28;20041;-53
2024/01/23 14:53:54;;;;;;;28.77;15.95;;;14.00;68.40;;;;;;20960507;28;20067;-55
2024/01/23 15:03:55;;;;;;;22.65;15.82;;;14.20;67.60;;;;;;20948662;28;20115;-55
2024/01/23 15:13:58;;;;;;;23.80;16.00;;;14.30;66.90;;;;;;20949773;28;20053;-55
2024/01/23 15:24:03;;;;;;;18.50;14.23;;;14.20;67.30;;;;;;20952118;28;20040;-55
2024/01/23 15:34:05;;;;;;;21.05;16.20;;;14.20;67.50;;;;;;20968551;28;20085;-53
2024/01/23 15:44:07;;;;;;;24.92;16.08;;;14.10;68.00;;;;;;20984780;28;20108;-55
2024/01/23 15:54:08;;;;;;;22.77;16.35;;;14.00;68.20;;;;;;20948150;28;20135;-54
2024/01/23 16:04:11;;;;;;;20.80;12.95;;;14.00;68.60;;;;;;20950349;28;20064;-56
2024/01/23 16:14:12;;;;;;;29.17;19.48;;;14.30;69.40;;;;;;20958371;28;20540;-58
2024/01/23 16:24:14;;;;;;;25.13;17.17;;;14.40;68.80;;;;;;20977377;28;20495;-56
2024/01/23 16:34:18;;;;;;;27.77;18.48;;;14.30;68.90;;;;;;21004966;28;20047;-54
2024/01/23 16:44:20;;;;;;;27.40;18.10;;;14.50;68.80;;;;;;21002896;28;20082;-54
2024/01/23 16:54:22;;;;;;;28.52;20.15;;;14.40;68.50;;;;;;20994545;28;20056;-56
2024/01/23 17:04:24;;;;;;;28.95;19.75;;;14.10;69.40;;;;;;21000087;28;20056;-56
2024/01/23 17:14:26;;;;;;;27.55;20.50;;;14.00;70.10;;;;;;20994958;28;20064;-55
2024/01/23 17:24:27;;;;;;;36.22;24.92;;;13.80;70.60;;;;;;20994530;28;20028;-54
2024/01/23 17:34:29;;;;;;;36.08;24.13;;;13.70;71.20;;;;;;21000123;28;20041;-55
2024/01/23 17:44:30;;;;;;;42.88;26.08;;;13.60;71.80;;;;;;20997809;28;20107;-56
2024/01/23 17:54:31;;;;;;;36.20;25.05;;;13.40;73.20;;;;;;20997121;28;20052;-55
2024/01/23 18:04:33;;;;;;;43.90;27.98;;;13.30;74.00;;;;;;20996786;28;20033;-55
2024/01/23 18:14:37;;;;;;;44.38;30.20;;;13.30;74.20;;;;;;20996916;28;20036;-55
2024/01/23 18:24:42;;;;;;;44.25;29.65;;;13.30;74.30;;;;;;20995426;28;20043;-55
2024/01/23 18:34:46;;;;;;;38.47;28.48;;;13.20;74.70;;;;;;20994480;28;20029;-55
2024/01/23 18:44:47;;;;;;;113.32;87.65;;;13.20;75.20;;;;;;20994178;28;20465;-56
2024/01/23 18:54:48;;;;;;;48.10;32.40;;;13.10;75.20;;;;;;20993788;28;20045;-56
2024/01/23 19:04:50;;;;;;;47.75;32.72;;;13.20;75.00;;;;;;20993665;28;20063;-56
2024/01/23 19:14:51;;;;;;;51.40;34.47;;;13.10;75.20;;;;;;20993459;28;20032;-56
2024/01/23 19:24:53;;;;;;;53.35;32.90;;;13.00;75.30;;;;;;20993002;28;20037;-57
2024/01/23 19:34:57;;;;;;;62.40;41.38;;;12.80;75.80;;;;;;20993419;28;20032;-57
2024/01/23 19:44:58;;;;;;;43.70;29.30;;;12.70;76.30;;;;;;21000345;28;20404;-54
2024/01/23 19:54:59;;;;;;;49.47;33.65;;;12.60;76.60;;;;;;21007391;28;20056;-55
2024/01/23 20:05:01;;;;;;;53.08;35.70;;;12.50;76.70;;;;;;21006869;28;20028;-55
2024/01/23 20:15:03;;;;;;;36.22;23.45;;;12.30;77.30;;;;;;21006255;28;20028;-55
2024/01/23 20:25:05;;;;;;;27.00;18.88;;;12.10;78.10;;;;;;21005935;28;20028;-55
2024/01/23 20:35:08;;;;;;;24.92;17.13;;;11.70;78.80;;;;;;21006027;28;20036;-55
2024/01/23 20:45:09;;;;;;;25.15;17.67;;;11.50;79.10;;;;;;21004515;28;20470;-57
2024/01/23 20:55:11;;;;;;;26.35;18.30;;;11.30;79.30;;;;;;21003757;28;20120;-56
2024/01/23 21:05:12;;;;;;;25.48;16.35;;;11.20;79.60;;;;;;21003551;28;20454;-57
2024/01/23 21:15:13;;;;;;;21.50;16.63;;;11.00;79.90;;;;;;21000840;28;20032;-56
2024/01/23 21:25:14;;;;;;;21.35;16.42;;;10.90;80.00;;;;;;21000005;28;20040;-55
2024/01/23 21:35:17;;;;;;;28.02;16.85;;;10.70;80.20;;;;;;20998294;28;20051;-55
2024/01/23 21:45:18;;;;;;;26.52;17.48;;;10.60;80.30;;;;;;20997869;28;20108;-55
2024/01/23 21:55:19;;;;;;;27.05;19.35;;;10.40;80.40;;;;;;20998094;28;20146;-55
2024/01/23 22:05:20;;;;;;;27.38;17.05;;;10.40;80.40;;;;;;20996041;28;20051;-56
2024/01/23 22:15:23;;;;;;;24.08;16.23;;;10.30;80.50;;;;;;20996346;28;20032;-55
2024/01/23 22:25:24;;;;;;;23.73;16.80;;;10.20;80.70;;;;;;20996515;28;20036;-55
2024/01/23 22:35:27;;;;;;;28.20;18.00;;;10.20;80.70;;;;;;20995825;28;20094;-57
2024/01/23 22:45:29;;;;;;;23.50;16.65;;;10.20;80.80;;;;;;20996235;28;20491;-55
2024/01/23 22:55:30;;;;;;;26.33;16.33;;;10.10;80.90;;;;;;20996033;28;20518;-55
2024/01/23 23:05:31;;;;;;;24.65;17.02;;;10.00;80.90;;;;;;20994466;28;20028;-57
2024/01/23 23:15:32;;;;;;;26.63;17.70;;;9.90;81.10;;;;;;20995325;28;20036;-56
2024/01/23 23:25:33;;;;;;;26.25;18.27;;;9.80;81.10;;;;;;21012339;28;20037;-56
2024/01/23 23:35:36;;;;;;;25.08;17.95;;;9.80;81.10;;;;;;21011292;28;20035;-55
2024/01/23 23:45:37;;;;;;;25.17;17.42;;;9.70;81.00;;;;;;21010435;28;20413;-56
2024/01/23 23:55:38;;;;;;;24.35;18.65;;;9.50;80.90;;;;;;21009765;28;20442;-56
